createdAt,value
2018-03-22T00:00:38.962Z,2.33
2018-03-22T00:03:06.606Z,2.36
2018-03-22T00:05:34.211Z,2.44
2018-03-22T00:08:02.017Z,2.45
2018-03-22T00:10:29.653Z,2.42
2018-03-22T00:12:57.251Z,2.42
2018-03-22T00:15:24.853Z,2.38
2018-03-22T00:17:52.488Z,2.31
2018-03-22T00:20:20.073Z,2.37
2018-03-22T00:22:47.686Z,2.37
2018-03-22T00:25:15.319Z,2.36
2018-03-22T00:27:42.919Z,2.31
2018-03-22T00:30:10.613Z,2.29
2018-03-22T00:32:38.257Z,2.25
2018-03-22T00:35:05.848Z,2.24
2018-03-22T00:37:33.445Z,2.25
2018-03-22T00:40:01.065Z,2.22
2018-03-22T00:42:28.647Z,2.18
2018-03-22T00:44:56.271Z,2.09
2018-03-22T00:47:23.901Z,2.07
2018-03-22T00:49:51.492Z,2.07
2018-03-22T00:52:19.081Z,2.02
2018-03-22T00:54:46.711Z,2.03
2018-03-22T00:57:14.302Z,1.99
2018-03-22T00:59:41.907Z,1.99
2018-03-22T01:02:09.539Z,2.05
2018-03-22T01:04:37.128Z,2.01
2018-03-22T01:07:04.722Z,2.07
2018-03-22T01:09:32.362Z,2.10
2018-03-22T01:11:59.957Z,2.11
2018-03-22T01:14:27.553Z,2.09
2018-03-22T01:16:55.190Z,2.07
2018-03-22T01:19:22.777Z,2.11
2018-03-22T01:21:50.362Z,2.14
2018-03-22T01:24:18.002Z,2.17
2018-03-22T01:26:45.602Z,2.18
2018-03-22T01:29:13.197Z,2.17
2018-03-22T01:31:40.836Z,2.18
2018-03-22T01:34:08.466Z,2.21
2018-03-22T01:36:36.053Z,2.20
2018-03-22T01:39:03.776Z,2.21
2018-03-22T01:41:31.367Z,2.22
2018-03-22T01:43:59.003Z,2.25
2018-03-22T01:46:26.626Z,2.17
2018-03-22T01:48:54.241Z,2.14
2018-03-22T01:51:21.839Z,2.20
2018-03-22T01:53:49.476Z,2.23
2018-03-22T01:56:17.074Z,2.23
2018-03-22T01:58:44.666Z,2.21
2018-03-22T02:01:12.298Z,2.21
2018-03-22T02:03:39.910Z,2.22
2018-03-22T02:06:07.497Z,2.22
2018-03-22T02:08:35.134Z,2.23
2018-03-22T02:11:02.736Z,2.19
2018-03-22T02:13:30.337Z,2.16
2018-03-22T02:15:57.967Z,2.08
2018-03-22T02:18:25.576Z,2.04
2018-03-22T02:20:53.176Z,2.07
2018-03-22T02:23:20.825Z,2.08
2018-03-22T02:25:48.419Z,2.05
2018-03-22T02:28:16.019Z,1.94
2018-03-22T02:30:43.665Z,2.00
2018-03-22T02:33:11.258Z,1.98
2018-03-22T02:35:38.867Z,2.05
2018-03-22T02:38:06.514Z,2.07
2018-03-22T02:40:34.124Z,2.08
2018-03-22T02:43:01.724Z,2.12
2018-03-22T02:45:29.383Z,2.02
2018-03-22T02:47:57.003Z,2.00
2018-03-22T02:50:24.603Z,2.02
2018-03-22T02:52:52.242Z,2.00
2018-03-22T02:55:19.834Z,1.96
2018-03-22T02:57:47.437Z,1.94
2018-03-22T03:00:15.078Z,1.82
2018-03-22T03:02:42.679Z,1.88
2018-03-22T03:05:10.274Z,1.87
2018-03-22T03:07:37.905Z,1.86
2018-03-22T03:10:05.503Z,1.88
2018-03-22T03:12:33.101Z,1.91
2018-03-22T03:15:00.731Z,1.97
2018-03-22T03:17:28.370Z,1.96
2018-03-22T03:19:55.960Z,1.96
2018-03-22T03:22:23.586Z,1.97
2018-03-22T03:24:51.183Z,1.96
2018-03-22T03:27:18.788Z,1.99
2018-03-22T03:29:46.422Z,2.05
2018-03-22T03:32:14.014Z,1.97
2018-03-22T03:34:41.601Z,1.94
2018-03-22T03:37:09.240Z,1.89
2018-03-22T03:39:36.879Z,1.91
2018-03-22T03:42:04.478Z,1.95
2018-03-22T03:44:32.106Z,1.95
2018-03-22T03:46:59.697Z,1.96
2018-03-22T03:49:27.289Z,1.95
2018-03-22T03:51:54.909Z,1.87
2018-03-22T03:54:22.513Z,1.83
2018-03-22T03:56:50.110Z,1.80
2018-03-22T03:59:17.739Z,1.83
2018-03-22T04:01:45.336Z,1.76
2018-03-22T04:04:12.963Z,1.76
2018-03-22T04:06:40.588Z,1.81
2018-03-22T04:09:08.187Z,1.85
2018-03-22T04:11:35.790Z,1.87
2018-03-22T04:14:03.420Z,1.90
2018-03-22T04:16:31.007Z,1.89
2018-03-22T04:18:58.606Z,1.86
2018-03-22T04:21:26.245Z,1.85
2018-03-22T04:23:53.842Z,1.91
2018-03-22T04:26:21.452Z,1.89
2018-03-22T04:28:49.095Z,1.91
2018-03-22T04:31:16.690Z,1.90
2018-03-22T04:33:44.290Z,1.87
2018-03-22T04:36:11.923Z,1.83
2018-03-22T04:38:39.515Z,1.86
2018-03-22T04:41:07.115Z,1.80
2018-03-22T04:43:34.754Z,1.83
2018-03-22T04:46:02.342Z,1.88
2018-03-22T04:48:30.033Z,1.90
2018-03-22T04:50:57.688Z,1.87
2018-03-22T04:53:25.314Z,1.82
2018-03-22T04:55:52.908Z,1.83
2018-03-22T04:58:20.503Z,1.83
2018-03-22T05:00:48.129Z,1.83
2018-03-22T05:03:15.721Z,1.86
2018-03-22T05:05:43.356Z,1.91
2018-03-22T05:08:10.997Z,1.94
2018-03-22T05:10:38.590Z,1.87
2018-03-22T05:13:06.295Z,1.87
2018-03-22T05:15:33.933Z,1.91
2018-03-22T05:18:01.517Z,1.93
2018-03-22T05:20:29.225Z,1.88
2018-03-22T05:22:56.845Z,1.94
2018-03-22T05:25:24.437Z,1.96
2018-03-22T05:27:52.040Z,1.99
2018-03-22T05:30:19.658Z,2.01
2018-03-22T05:32:47.265Z,2.02
2018-03-22T05:35:14.854Z,2.05
2018-03-22T05:37:42.486Z,2.05
2018-03-22T05:40:10.088Z,2.05
2018-03-22T05:42:37.709Z,2.04
2018-03-22T05:45:05.343Z,2.02
2018-03-22T05:47:33.026Z,2.07
2018-03-22T05:50:00.656Z,2.06
2018-03-22T05:52:28.291Z,2.10
2018-03-22T05:54:55.880Z,2.09
2018-03-22T05:57:23.492Z,2.08
2018-03-22T05:59:51.123Z,2.05
2018-03-22T06:02:18.708Z,2.04
2018-03-22T06:04:46.296Z,1.95
2018-03-22T06:07:13.915Z,1.92
2018-03-22T06:09:41.521Z,1.87
2018-03-22T06:12:09.112Z,1.86
2018-03-22T06:14:36.730Z,1.82
2018-03-22T06:17:04.313Z,1.83
2018-03-22T06:19:31.901Z,1.81
2018-03-22T06:21:59.536Z,1.68
2018-03-22T06:24:27.132Z,1.62
2018-03-22T06:26:54.725Z,1.48
2018-03-22T06:29:22.357Z,1.48
2018-03-22T06:31:49.952Z,1.38
2018-03-22T06:34:17.539Z,1.31
2018-03-22T06:36:45.167Z,1.34
2018-03-22T06:39:12.773Z,1.30
2018-03-22T06:41:40.364Z,1.35
2018-03-22T06:44:07.987Z,1.27
2018-03-22T06:46:35.580Z,1.31
2018-03-22T06:49:03.172Z,1.43
2018-03-22T06:51:30.834Z,1.44
2018-03-22T06:53:58.428Z,1.40
2018-03-22T06:56:26.055Z,1.38
2018-03-22T06:58:53.706Z,1.46
2018-03-22T07:01:21.299Z,1.67
2018-03-22T07:03:48.893Z,1.51
2018-03-22T07:06:16.557Z,1.62
2018-03-22T07:08:44.150Z,1.52
2018-03-22T07:11:11.737Z,1.53
2018-03-22T07:13:39.358Z,1.61
2018-03-22T07:16:06.972Z,1.55
2018-03-22T07:18:35.486Z,1.41
2018-03-22T07:21:03.101Z,1.32
2018-03-22T07:23:30.688Z,1.35
2018-03-22T07:25:58.315Z,1.40
2018-03-22T07:28:25.937Z,1.37
2018-03-22T07:30:53.532Z,1.43
2018-03-22T07:33:21.119Z,1.42
2018-03-22T07:35:48.750Z,1.45
2018-03-22T07:38:16.340Z,1.42
2018-03-22T07:40:43.934Z,1.51
2018-03-22T07:43:17.050Z,1.50
2018-03-22T07:45:44.812Z,1.49
2018-03-22T07:48:12.449Z,1.44
2018-03-22T07:50:40.152Z,1.30
2018-03-22T07:53:07.735Z,1.17
2018-03-22T07:55:35.375Z,1.27
2018-03-22T07:58:03.022Z,1.33
2018-03-22T08:00:30.685Z,1.37
2018-03-22T08:03:01.657Z,1.32
2018-03-22T08:05:29.328Z,1.42
2018-03-22T08:07:56.923Z,1.39
2018-03-22T08:10:24.502Z,1.45
2018-03-22T08:12:52.137Z,1.47
2018-03-22T08:15:19.766Z,1.42
2018-03-22T08:17:47.360Z,1.37
2018-03-22T08:20:14.990Z,1.44
2018-03-22T08:22:42.587Z,1.49
2018-03-22T08:25:10.198Z,1.44
2018-03-22T08:27:37.832Z,1.46
2018-03-22T08:30:05.425Z,1.33
2018-03-22T08:32:33.077Z,1.35
2018-03-22T08:35:00.709Z,1.38
2018-03-22T08:37:28.310Z,1.38
2018-03-22T08:39:55.899Z,1.38
2018-03-22T08:42:23.531Z,1.26
2018-03-22T08:44:51.130Z,1.38
2018-03-22T08:47:18.723Z,1.33
2018-03-22T08:49:46.349Z,1.30
2018-03-22T08:52:13.914Z,1.32
2018-03-22T08:54:41.511Z,1.23
2018-03-22T08:57:09.140Z,1.32
2018-03-22T08:59:36.752Z,1.31
2018-03-22T09:02:04.342Z,1.32
2018-03-22T09:04:31.966Z,1.27
2018-03-22T09:06:59.559Z,1.27
2018-03-22T09:09:27.150Z,1.24
2018-03-22T09:11:54.774Z,1.23
2018-03-22T09:14:22.505Z,1.21
2018-03-22T09:16:49.988Z,1.19
2018-03-22T09:19:17.625Z,1.11
2018-03-22T09:21:45.217Z,1.02
2018-03-22T09:24:12.856Z,1.10
2018-03-22T09:26:45.904Z,1.11
2018-03-22T09:29:13.498Z,1.13
2018-03-22T09:31:41.098Z,1.08
2018-03-22T09:34:08.747Z,1.21
2018-03-22T09:36:36.398Z,1.28
2018-03-22T09:39:04.169Z,0.90
2018-03-22T09:41:31.826Z,0.94
2018-03-22T09:44:01.164Z,0.87
2018-03-22T09:46:29.661Z,0.90
2018-03-22T09:48:57.438Z,0.98
2018-03-22T09:51:25.051Z,0.95
2018-03-22T09:53:52.663Z,1.09
2018-03-22T09:56:20.344Z,1.05
2018-03-22T09:58:47.971Z,1.11
2018-03-22T10:01:15.602Z,1.03
2018-03-22T10:03:43.318Z,1.06
2018-03-22T10:06:10.935Z,1.00
2018-03-22T10:08:38.561Z,0.98
2018-03-22T10:11:06.204Z,1.17
2018-03-22T10:13:33.845Z,1.25
2018-03-22T10:16:01.419Z,1.21
2018-03-22T10:18:29.036Z,1.18
2018-03-22T10:20:56.627Z,1.12
2018-03-22T10:23:25.017Z,1.04
2018-03-22T10:25:52.679Z,0.90
2018-03-22T10:28:20.262Z,0.78
2018-03-22T10:30:47.842Z,0.57
2018-03-22T10:33:15.458Z,0.66
2018-03-22T10:35:43.049Z,0.68
2018-03-22T10:38:10.635Z,0.52
2018-03-22T10:40:38.253Z,0.75
2018-03-22T10:43:05.832Z,0.87
2018-03-22T10:45:33.401Z,0.90
2018-03-22T10:48:01.014Z,0.91
2018-03-22T10:50:28.598Z,0.77
2018-03-22T10:52:56.189Z,0.83
2018-03-22T10:55:23.826Z,0.89
2018-03-22T10:57:51.414Z,0.93
2018-03-22T11:00:24.511Z,0.87
2018-03-22T11:02:53.855Z,0.94
2018-03-22T11:05:21.455Z,1.05
2018-03-22T11:07:49.084Z,1.14
2018-03-22T11:10:16.660Z,1.21
2018-03-22T11:12:44.248Z,1.19
2018-03-22T11:15:11.887Z,1.19
2018-03-22T11:17:39.498Z,1.16
2018-03-22T11:20:07.123Z,1.23
2018-03-22T11:22:34.794Z,1.19
2018-03-22T11:25:02.391Z,1.17
2018-03-22T11:27:30.003Z,1.22
2018-03-22T11:29:57.637Z,1.17
2018-03-22T11:32:25.224Z,1.11
2018-03-22T11:34:52.801Z,1.01
2018-03-22T11:37:20.455Z,1.13
2018-03-22T11:39:48.074Z,1.25
2018-03-22T11:42:15.642Z,1.21
2018-03-22T11:44:43.318Z,1.27
2018-03-22T11:47:10.893Z,1.20
2018-03-22T11:49:38.446Z,1.13
2018-03-22T11:52:06.052Z,1.01
2018-03-22T11:54:33.634Z,1.00
2018-03-22T11:57:01.216Z,1.06
2018-03-22T11:59:28.845Z,1.09
2018-03-22T12:01:56.464Z,1.13
2018-03-22T12:04:24.079Z,1.14
2018-03-22T12:06:51.789Z,1.23
2018-03-22T12:09:19.398Z,1.24
2018-03-22T12:11:47.021Z,1.33
2018-03-22T12:14:14.742Z,1.39
2018-03-22T12:16:42.364Z,1.42
2018-03-22T12:19:09.998Z,1.40
2018-03-22T12:21:37.700Z,1.47
2018-03-22T12:24:05.380Z,1.33
2018-03-22T12:26:33.020Z,1.29
2018-03-22T12:29:00.691Z,1.28
2018-03-22T12:31:28.301Z,1.32
2018-03-22T12:33:55.915Z,1.31
2018-03-22T12:36:23.564Z,1.19
2018-03-22T12:38:51.184Z,1.13
2018-03-22T12:41:18.778Z,1.12
2018-03-22T12:43:46.440Z,0.88
2018-03-22T12:46:14.034Z,0.95
2018-03-22T12:48:41.620Z,1.11
2018-03-22T12:51:09.248Z,1.14
2018-03-22T12:53:36.822Z,1.07
2018-03-22T12:56:04.454Z,1.04
2018-03-22T12:58:32.086Z,0.95
2018-03-22T13:00:59.666Z,0.97
2018-03-22T13:03:27.255Z,0.89
2018-03-22T13:05:54.876Z,0.91
2018-03-22T13:08:22.459Z,0.62
2018-03-22T13:10:50.038Z,0.84
2018-03-22T13:13:17.700Z,0.80
2018-03-22T13:15:45.302Z,0.91
2018-03-22T13:18:12.877Z,0.92
2018-03-22T13:20:40.486Z,0.80
2018-03-22T13:23:08.068Z,0.75
2018-03-22T13:25:35.653Z,0.82
2018-03-22T13:28:03.264Z,0.93
2018-03-22T13:30:30.834Z,0.99
2018-03-22T13:32:58.409Z,0.92
2018-03-22T13:35:26.019Z,0.84
2018-03-22T13:37:53.603Z,0.84
2018-03-22T13:40:21.214Z,0.79
2018-03-22T13:42:48.849Z,0.81
2018-03-22T13:45:16.495Z,0.82
2018-03-22T13:47:44.074Z,0.86
2018-03-22T13:50:11.699Z,0.90
2018-03-22T13:52:39.268Z,0.88
2018-03-22T13:55:06.846Z,0.96
2018-03-22T13:57:34.462Z,0.95
2018-03-22T14:00:02.031Z,0.89
2018-03-22T14:02:29.612Z,0.89
2018-03-22T14:04:57.219Z,0.77
2018-03-22T14:07:24.789Z,0.78
2018-03-22T14:09:52.359Z,0.66
2018-03-22T14:12:19.981Z,0.59
2018-03-22T14:14:47.598Z,0.53
2018-03-22T14:17:15.207Z,0.47
2018-03-22T14:19:42.811Z,0.44
2018-03-22T14:22:10.378Z,0.29
2018-03-22T14:24:37.980Z,0.28
2018-03-22T14:27:05.603Z,0.17
2018-03-22T14:29:33.164Z,0.09
2018-03-22T14:32:00.746Z,0.10
2018-03-22T14:34:28.368Z,0.17
2018-03-22T14:36:55.928Z,0.11
2018-03-22T14:39:23.505Z,0.03
2018-03-22T14:41:51.126Z,-0.13
2018-03-22T14:44:18.706Z,-0.05
2018-03-22T14:46:46.345Z,0.08
2018-03-22T14:49:14.012Z,0.08
2018-03-22T14:51:41.581Z,0.07
2018-03-22T14:54:09.338Z,0.14
2018-03-22T14:56:36.948Z,0.09
2018-03-22T14:59:04.540Z,0.04
2018-03-22T15:01:32.147Z,0.15
2018-03-22T15:03:59.757Z,0.14
2018-03-22T15:06:30.885Z,0.15
2018-03-22T15:09:02.225Z,0.02
2018-03-22T15:11:34.147Z,-0.01
2018-03-22T15:14:02.191Z,-0.09
2018-03-22T15:16:29.780Z,-0.06
2018-03-22T15:18:57.412Z,-0.02
2018-03-22T15:21:28.860Z,-0.06
2018-03-22T15:24:01.231Z,-0.10
2018-03-22T15:26:29.319Z,-0.08
2018-03-22T15:28:56.911Z,-0.15
2018-03-22T15:31:24.488Z,-0.16
2018-03-22T15:33:52.105Z,-0.14
2018-03-22T15:36:19.675Z,-0.20
2018-03-22T15:38:47.257Z,-0.19
2018-03-22T15:41:14.970Z,-0.16
2018-03-22T15:43:42.557Z,-0.07
2018-03-22T15:46:10.214Z,-0.16
2018-03-22T15:48:37.853Z,-0.15
2018-03-22T15:51:05.458Z,-0.12
2018-03-22T15:53:33.043Z,-0.20
2018-03-22T15:56:00.689Z,-0.23
2018-03-22T15:58:28.273Z,-0.19
2018-03-22T16:00:55.894Z,-0.08
2018-03-22T16:03:23.573Z,-0.07
2018-03-22T16:05:51.158Z,-0.11
2018-03-22T16:08:18.738Z,-0.16
2018-03-22T16:10:46.361Z,-0.16
2018-03-22T16:13:13.942Z,-0.11
2018-03-22T16:15:41.514Z,-0.11
2018-03-22T16:18:09.141Z,-0.15
2018-03-22T16:20:36.730Z,-0.11
2018-03-22T16:23:04.305Z,-0.16
2018-03-22T16:25:31.927Z,-0.15
2018-03-22T16:27:59.524Z,-0.18
2018-03-22T16:30:27.121Z,-0.24
2018-03-22T16:32:54.770Z,-0.30
2018-03-22T16:35:22.360Z,-0.30
2018-03-22T16:37:49.995Z,-0.27
2018-03-22T16:40:17.623Z,-0.32
2018-03-22T16:42:45.242Z,-0.31
2018-03-22T16:45:12.854Z,-0.30
2018-03-22T16:47:40.484Z,-0.31
2018-03-22T16:50:08.072Z,-0.28
2018-03-22T16:52:35.670Z,-0.24
2018-03-22T16:55:03.306Z,-0.26
2018-03-22T16:57:30.966Z,-0.22
2018-03-22T16:59:58.604Z,-0.20
2018-03-22T17:02:26.222Z,-0.20
2018-03-22T17:04:53.866Z,-0.29
2018-03-22T17:07:21.552Z,-0.28
2018-03-22T17:09:49.166Z,-0.28
2018-03-22T17:12:16.874Z,-0.30
2018-03-22T17:14:44.462Z,-0.38
2018-03-22T17:17:12.094Z,-0.34
2018-03-22T17:19:39.685Z,-0.34
2018-03-22T17:22:07.273Z,-0.24
2018-03-22T17:24:34.888Z,-0.19
2018-03-22T17:27:02.541Z,-0.12
2018-03-22T17:29:30.179Z,-0.20
2018-03-22T17:31:57.829Z,-0.26
2018-03-22T17:34:25.397Z,-0.20
2018-03-22T17:36:52.989Z,-0.28
2018-03-22T17:39:20.648Z,-0.28
2018-03-22T17:41:48.393Z,-0.24
2018-03-22T17:44:16.049Z,-0.25
2018-03-22T17:46:43.679Z,-0.22
2018-03-22T17:49:11.266Z,-0.23
2018-03-22T17:51:38.892Z,-0.18
2018-03-22T17:54:06.515Z,-0.13
2018-03-22T17:56:34.106Z,-0.10
2018-03-22T17:59:01.695Z,-0.03
2018-03-22T18:01:29.322Z,-0.06
2018-03-22T18:03:56.910Z,-0.03
2018-03-22T18:06:24.485Z,-0.08
2018-03-22T18:08:52.094Z,-0.11
2018-03-22T18:11:19.709Z,-0.13
2018-03-22T18:13:47.296Z,-0.06
2018-03-22T18:16:14.925Z,-0.07
2018-03-22T18:18:42.507Z,-0.11
2018-03-22T18:21:10.087Z,-0.12
2018-03-22T18:23:37.720Z,-0.18
2018-03-22T18:26:05.305Z,-0.18
2018-03-22T18:28:32.892Z,-0.17
2018-03-22T18:31:00.505Z,-0.23
2018-03-22T18:33:28.092Z,-0.23
2018-03-22T18:35:55.725Z,-0.18
2018-03-22T18:38:23.342Z,-0.22
2018-03-22T18:40:50.937Z,-0.26
2018-03-22T18:43:18.526Z,-0.24
2018-03-22T18:45:46.146Z,-0.32
2018-03-22T18:48:13.775Z,-0.37
2018-03-22T18:50:41.433Z,-0.39
2018-03-22T18:53:09.055Z,-0.37
2018-03-22T18:55:36.704Z,-0.41
2018-03-22T18:58:04.323Z,-0.44
2018-03-22T19:00:31.950Z,-0.49
2018-03-22T19:02:59.532Z,-0.56
2018-03-22T19:05:27.926Z,-0.69
2018-03-22T19:07:55.554Z,-0.62
2018-03-22T19:10:23.127Z,-0.63
2018-03-22T19:12:50.694Z,-0.64
2018-03-22T19:15:18.307Z,-0.66
2018-03-22T19:17:45.896Z,-0.70
2018-03-22T19:20:13.502Z,-0.70
2018-03-22T19:22:41.111Z,-0.69
2018-03-22T19:25:08.687Z,-0.71
2018-03-22T19:27:36.270Z,-0.66
2018-03-22T19:30:03.942Z,-0.65
2018-03-22T19:32:31.535Z,-0.63
2018-03-22T19:34:59.119Z,-0.62
2018-03-22T19:37:26.760Z,-0.62
2018-03-22T19:39:54.338Z,-0.69
2018-03-22T19:42:21.942Z,-0.70
2018-03-22T19:44:49.561Z,-0.71
2018-03-22T19:47:17.151Z,-0.71
2018-03-22T19:49:44.745Z,-0.63
2018-03-22T19:52:12.382Z,-0.56
2018-03-22T19:54:39.983Z,-0.50
2018-03-22T19:57:07.579Z,-0.47
2018-03-22T19:59:35.203Z,-0.46
2018-03-22T20:02:02.785Z,-0.56
2018-03-22T20:04:30.377Z,-0.62
2018-03-22T20:06:57.979Z,-0.55
2018-03-22T20:09:25.599Z,-0.57
2018-03-22T20:11:53.196Z,-0.61
2018-03-22T20:14:20.848Z,-0.55
2018-03-22T20:16:48.466Z,-0.61
2018-03-22T20:19:16.061Z,-0.61
2018-03-22T20:21:43.685Z,-0.67
2018-03-22T20:24:11.262Z,-0.62
2018-03-22T20:26:38.844Z,-0.57
2018-03-22T20:29:06.463Z,-0.65
2018-03-22T20:31:34.033Z,-0.78
2018-03-22T20:34:01.600Z,-0.74
2018-03-22T20:36:29.230Z,-0.72
2018-03-22T20:38:56.821Z,-0.69
2018-03-22T20:41:24.405Z,-0.67
2018-03-22T20:43:52.020Z,-0.64
2018-03-22T20:46:19.584Z,-0.68
2018-03-22T20:48:47.159Z,-0.68
2018-03-22T20:51:14.813Z,-0.57
2018-03-22T20:53:42.373Z,-0.60
2018-03-22T20:56:10.015Z,-0.53
2018-03-22T20:58:37.635Z,-0.53
2018-03-22T21:01:05.300Z,-0.50
2018-03-22T21:03:32.881Z,-0.44
2018-03-22T21:06:00.495Z,-0.37
2018-03-22T21:08:28.098Z,-0.34
2018-03-22T21:10:55.669Z,-0.31
2018-03-22T21:13:23.268Z,-0.36
2018-03-22T21:15:50.858Z,-0.33
2018-03-22T21:18:18.450Z,-0.29
2018-03-22T21:20:46.124Z,-0.39
2018-03-22T21:23:13.692Z,-0.35
2018-03-22T21:25:41.279Z,-0.39
2018-03-22T21:28:08.927Z,-0.51
2018-03-22T21:30:36.519Z,-0.65
2018-03-22T21:33:04.114Z,-0.65
2018-03-22T21:35:31.770Z,-0.67
2018-03-22T21:37:59.365Z,-0.70
2018-03-22T21:40:26.941Z,-0.74
2018-03-22T21:42:54.556Z,-0.78
2018-03-22T21:45:22.143Z,-0.69
2018-03-22T21:47:49.722Z,-0.69
2018-03-22T21:50:17.325Z,-0.73
2018-03-22T21:52:47.694Z,-0.69
2018-03-22T21:55:15.287Z,-0.57
2018-03-22T21:57:42.895Z,-0.61
2018-03-22T22:00:10.483Z,-0.49
2018-03-22T22:02:38.064Z,-0.60
2018-03-22T22:05:05.697Z,-0.64
2018-03-22T22:07:33.294Z,-0.58
2018-03-22T22:10:00.907Z,-0.51
2018-03-22T22:12:28.510Z,-0.57
2018-03-22T22:14:56.092Z,-0.62
2018-03-22T22:17:23.659Z,-0.54
2018-03-22T22:19:51.258Z,-0.44
2018-03-22T22:22:18.814Z,-0.40
2018-03-22T22:24:46.404Z,-0.37
2018-03-22T22:27:14.010Z,-0.40
2018-03-22T22:29:41.596Z,-0.40
2018-03-22T22:32:09.181Z,-0.59
2018-03-22T22:34:36.783Z,-0.48
2018-03-22T22:37:04.379Z,-0.51
2018-03-22T22:39:31.944Z,-0.51
2018-03-22T22:41:59.687Z,-0.47
2018-03-22T22:44:27.256Z,-0.45
2018-03-22T22:46:54.837Z,-0.44
2018-03-22T22:49:22.457Z,-0.45
2018-03-22T22:51:50.048Z,-0.38
2018-03-22T22:54:17.634Z,-0.43
2018-03-22T22:56:45.672Z,-0.51
2018-03-22T22:59:13.225Z,-0.58
2018-03-22T23:01:40.804Z,-0.45
2018-03-22T23:04:08.410Z,-0.55
2018-03-22T23:06:35.981Z,-0.61
2018-03-22T23:09:03.652Z,-0.48
2018-03-22T23:11:31.269Z,-0.42
2018-03-22T23:13:58.851Z,-0.33
2018-03-22T23:16:26.460Z,-0.28
2018-03-22T23:18:54.060Z,-0.30
2018-03-22T23:21:21.625Z,-0.24
2018-03-22T23:23:49.214Z,-0.24
2018-03-22T23:26:16.824Z,-0.21
2018-03-22T23:28:44.426Z,-0.23
2018-03-22T23:31:12.018Z,-0.22
2018-03-22T23:33:39.657Z,-0.17
2018-03-22T23:36:07.293Z,-0.07
2018-03-22T23:38:34.882Z,0.00
2018-03-22T23:41:02.505Z,0.06
2018-03-22T23:43:30.096Z,0.06
2018-03-22T23:45:57.691Z,0.14
2018-03-22T23:48:25.330Z,0.15
2018-03-22T23:50:52.922Z,0.12
2018-03-22T23:53:20.514Z,0.15
2018-03-22T23:55:48.156Z,0.15
2018-03-22T23:58:15.823Z,0.18
